createdAt,value
2023-07-04T00:00:17.244Z,20.57
2023-07-04T00:03:41.916Z,20.55
2023-07-04T00:06:45.190Z,20.55
2023-07-04T00:09:48.378Z,20.52
2023-07-04T00:12:51.302Z,20.51
2023-07-04T00:15:57.280Z,20.50
2023-07-04T00:19:00.380Z,20.48
2023-07-04T00:22:05.379Z,20.46
2023-07-04T00:25:09.139Z,20.42
2023-07-04T00:28:12.056Z,20.40
2023-07-04T00:31:21.364Z,20.36
2023-07-04T00:34:25.039Z,20.33
2023-07-04T00:37:30.428Z,20.29
2023-07-04T00:40:33.448Z,20.26
2023-07-04T00:43:47.979Z,20.23
2023-07-04T00:46:57.821Z,20.19
2023-07-04T00:50:08.722Z,20.16
2023-07-04T00:53:13.924Z,20.13
2023-07-04T00:56:17.308Z,20.10
2023-07-04T00:59:21.520Z,20.07
2023-07-04T01:02:27.514Z,20.04
2023-07-04T01:05:51.663Z,20.01
2023-07-04T01:09:02.495Z,19.98
2023-07-04T01:12:06.618Z,19.95
2023-07-04T01:15:10.648Z,19.92
2023-07-04T01:18:15.456Z,19.89
2023-07-04T01:21:23.528Z,19.85
2023-07-04T01:24:40.383Z,19.81
2023-07-04T01:27:45.222Z,19.78
2023-07-04T01:30:49.023Z,19.75
2023-07-04T01:33:53.276Z,19.73
2023-07-04T01:36:56.415Z,19.70
2023-07-04T01:40:01.560Z,19.68
2023-07-04T01:43:07.171Z,19.64
2023-07-04T01:46:10.616Z,19.61
2023-07-04T01:49:14.002Z,19.58
2023-07-04T01:52:17.027Z,19.57
2023-07-04T01:55:20.227Z,19.56
2023-07-04T01:58:23.267Z,19.54
2023-07-04T02:01:26.408Z,19.51
2023-07-04T02:04:29.415Z,19.49
2023-07-04T02:07:32.750Z,19.47
2023-07-04T02:10:35.872Z,19.47
2023-07-04T02:13:39.782Z,19.44
2023-07-04T02:16:42.795Z,19.42
2023-07-04T02:19:46.039Z,19.40
2023-07-04T02:22:49.069Z,19.38
2023-07-04T02:25:54.227Z,19.36
2023-07-04T02:28:57.140Z,19.35
2023-07-04T02:32:00.115Z,19.33
2023-07-04T02:35:03.895Z,19.30
2023-07-04T02:38:07.263Z,19.28
2023-07-04T02:41:11.237Z,19.27
2023-07-04T02:44:14.324Z,19.26
2023-07-04T02:47:19.615Z,19.24
2023-07-04T02:50:22.921Z,19.23
2023-07-04T02:53:26.037Z,19.22
2023-07-04T02:56:29.739Z,19.21
2023-07-04T02:59:32.823Z,19.19
2023-07-04T03:02:36.783Z,19.18
2023-07-04T03:05:48.646Z,19.16
2023-07-04T03:08:53.084Z,19.14
2023-07-04T03:11:56.479Z,19.12
2023-07-04T03:14:59.862Z,19.11
2023-07-04T03:18:06.193Z,19.09
2023-07-04T03:21:12.226Z,19.08
2023-07-04T03:24:15.265Z,19.08
2023-07-04T03:27:18.382Z,19.06
2023-07-04T03:30:21.613Z,19.05
2023-07-04T03:33:26.644Z,19.04
2023-07-04T03:36:29.734Z,19.03
2023-07-04T03:39:32.696Z,19.02
2023-07-04T03:42:37.265Z,19.01
2023-07-04T03:45:40.287Z,19.01
2023-07-04T03:48:44.187Z,19.01
2023-07-04T03:51:48.014Z,19.00
2023-07-04T03:54:51.274Z,19.01
2023-07-04T03:57:54.243Z,19.02
2023-07-04T04:00:57.215Z,19.02
2023-07-04T04:04:00.308Z,19.02
2023-07-04T04:07:03.771Z,19.04
2023-07-04T04:10:07.458Z,19.04
2023-07-04T04:13:11.280Z,19.05
2023-07-04T04:16:14.463Z,19.04
2023-07-04T04:19:17.537Z,19.05
2023-07-04T04:22:20.550Z,19.05
2023-07-04T04:25:23.494Z,19.05
2023-07-04T04:28:26.402Z,19.05
2023-07-04T04:31:30.240Z,19.06
2023-07-04T04:34:33.287Z,19.07
2023-07-04T04:37:36.485Z,19.09
2023-07-04T04:40:39.850Z,19.10
2023-07-04T04:43:42.828Z,19.12
2023-07-04T04:46:50.085Z,19.14
2023-07-04T04:49:53.195Z,19.16
2023-07-04T04:52:57.256Z,19.19
2023-07-04T04:56:01.632Z,19.21
2023-07-04T04:59:04.544Z,19.23
2023-07-04T05:02:07.765Z,19.26
2023-07-04T05:05:10.823Z,19.29
2023-07-04T05:08:13.977Z,19.32
2023-07-04T05:11:17.947Z,19.36
2023-07-04T05:14:21.417Z,19.40
2023-07-04T05:17:25.334Z,19.44
2023-07-04T05:20:28.588Z,19.49
2023-07-04T05:23:32.699Z,19.55
2023-07-04T05:26:36.436Z,19.62
2023-07-04T05:29:40.064Z,19.70
2023-07-04T05:32:45.972Z,19.79
2023-07-04T05:35:49.412Z,19.88
2023-07-04T05:39:02.310Z,19.98
2023-07-04T05:42:08.198Z,20.10
2023-07-04T05:45:11.436Z,20.20
2023-07-04T05:48:14.511Z,20.31
2023-07-04T05:51:19.894Z,20.41
2023-07-04T05:54:22.872Z,20.52
2023-07-04T05:57:31.649Z,20.64
2023-07-04T06:00:36.145Z,20.77
2023-07-04T06:03:40.565Z,20.90
2023-07-04T06:06:49.668Z,21.01
2023-07-04T06:09:52.683Z,21.14
2023-07-04T06:12:55.658Z,21.25
2023-07-04T06:16:00.405Z,21.36
2023-07-04T06:19:03.759Z,21.47
2023-07-04T06:22:08.531Z,21.57
2023-07-04T06:25:11.433Z,21.69
2023-07-04T06:28:14.413Z,21.79
2023-07-04T06:31:18.465Z,21.88
2023-07-04T06:34:21.485Z,21.95
2023-07-04T06:37:24.451Z,22.05
2023-07-04T06:40:27.440Z,22.14
2023-07-04T06:43:32.829Z,22.21
2023-07-04T06:46:35.837Z,22.29
2023-07-04T06:49:38.842Z,22.36
2023-07-04T06:52:41.783Z,22.45
2023-07-04T06:55:44.958Z,22.53
2023-07-04T06:58:51.737Z,22.59
2023-07-04T07:01:54.985Z,22.66
2023-07-04T07:04:58.146Z,22.74
2023-07-04T07:08:01.128Z,22.82
2023-07-04T07:11:11.229Z,22.89
2023-07-04T07:14:14.382Z,22.98
2023-07-04T07:17:17.745Z,23.07
2023-07-04T07:20:20.785Z,23.18
2023-07-04T07:23:23.807Z,23.30
2023-07-04T07:26:29.542Z,23.44
2023-07-04T07:29:33.358Z,23.57
2023-07-04T07:32:36.480Z,23.69
2023-07-04T07:35:39.686Z,23.79
2023-07-04T07:38:43.136Z,23.88
2023-07-04T07:41:48.739Z,23.96
2023-07-04T07:44:51.871Z,24.04
2023-07-04T07:47:57.293Z,24.11
2023-07-04T07:51:00.556Z,24.17
2023-07-04T07:54:04.185Z,24.21
2023-07-04T07:57:07.880Z,24.27
2023-07-04T08:00:13.583Z,24.36
2023-07-04T08:03:16.720Z,24.47
2023-07-04T08:06:36.966Z,24.60
2023-07-04T08:09:40.200Z,24.76
2023-07-04T08:12:43.305Z,24.87
2023-07-04T08:15:56.130Z,24.99
2023-07-04T08:19:00.766Z,25.07
2023-07-04T08:22:03.918Z,25.17
2023-07-04T08:25:07.145Z,25.28
2023-07-04T08:28:10.243Z,25.40
2023-07-04T08:31:13.591Z,25.54
2023-07-04T08:34:16.750Z,25.70
2023-07-04T08:37:20.090Z,25.84
2023-07-04T08:40:30.528Z,25.97
2023-07-04T08:43:46.316Z,26.07
2023-07-04T08:46:54.637Z,26.16
2023-07-04T08:50:11.019Z,26.25
2023-07-04T08:53:24.017Z,26.33
2023-07-04T08:56:37.535Z,26.38
2023-07-04T08:59:48.166Z,26.47
2023-07-04T09:03:14.191Z,26.57
2023-07-04T09:06:31.880Z,26.61
2023-07-04T09:09:55.666Z,26.64
2023-07-04T09:13:01.416Z,26.72
2023-07-04T09:16:19.773Z,26.81
2023-07-04T09:19:23.082Z,26.90
2023-07-04T09:22:26.213Z,26.99
2023-07-04T09:25:29.746Z,27.10
2023-07-04T09:28:37.686Z,27.20
2023-07-04T09:31:42.558Z,27.29
2023-07-04T09:35:12.471Z,27.38
2023-07-04T09:38:15.799Z,27.49
2023-07-04T09:41:19.832Z,27.57
2023-07-04T09:44:37.428Z,27.65
2023-07-04T09:47:46.093Z,27.75
2023-07-04T09:50:49.174Z,27.83
2023-07-04T09:54:08.696Z,27.91
2023-07-04T09:57:24.113Z,28.00
2023-07-04T10:00:28.015Z,28.09
2023-07-04T10:03:31.213Z,28.17
2023-07-04T10:06:36.524Z,28.24
2023-07-04T10:09:57.511Z,28.32
2023-07-04T10:13:01.122Z,28.40
2023-07-04T10:16:19.443Z,28.48
2023-07-04T10:19:24.026Z,28.58
2023-07-04T10:22:36.442Z,28.66
2023-07-04T10:25:39.647Z,28.74
2023-07-04T10:28:44.116Z,28.80
2023-07-04T10:31:49.207Z,28.86
2023-07-04T10:34:53.388Z,28.91
2023-07-04T10:38:04.582Z,28.98
2023-07-04T10:41:36.103Z,29.03
2023-07-04T10:44:42.374Z,29.09
2023-07-04T10:47:48.904Z,29.14
2023-07-04T10:51:02.082Z,29.20
2023-07-04T10:54:09.183Z,29.23
2023-07-04T10:57:57.828Z,29.28
2023-07-04T11:01:08.477Z,29.37
2023-07-04T11:04:26.499Z,29.42
2023-07-04T11:07:30.130Z,29.46
2023-07-04T11:10:39.330Z,29.49
2023-07-04T11:13:54.016Z,29.55
2023-07-04T11:17:05.247Z,29.62
2023-07-04T11:20:16.188Z,29.68
2023-07-04T11:23:22.169Z,29.73
2023-07-04T11:26:51.308Z,29.78
2023-07-04T11:29:59.820Z,29.85
2023-07-04T11:33:03.420Z,29.92
2023-07-04T11:36:15.591Z,29.97
2023-07-04T11:39:38.629Z,30.02
2023-07-04T11:42:45.717Z,30.06
2023-07-04T11:45:50.232Z,30.10
2023-07-04T11:48:55.555Z,30.13
2023-07-04T11:52:20.651Z,30.18
2023-07-04T11:55:33.706Z,30.24
2023-07-04T11:58:37.038Z,30.29
2023-07-04T12:02:04.864Z,30.35
2023-07-04T12:05:32.523Z,30.43
2023-07-04T12:08:51.609Z,30.52
2023-07-04T12:11:57.481Z,30.53
2023-07-04T12:19:04.600Z,30.56
2023-07-04T12:22:06.860Z,30.59
2023-07-04T12:25:19.544Z,30.58
2023-07-04T12:28:27.504Z,30.60
2023-07-04T12:35:10.856Z,30.62
2023-07-04T12:37:58.859Z,30.58
2023-07-04T12:41:04.776Z,30.43
2023-07-04T12:47:26.241Z,29.76
2023-07-04T12:50:31.501Z,29.42
2023-07-04T12:53:35.197Z,29.09
2023-07-04T12:56:42.415Z,28.78
2023-07-04T12:59:49.443Z,28.49
2023-07-04T13:02:52.746Z,28.19
2023-07-04T13:05:56.262Z,27.95
2023-07-04T13:09:00.430Z,27.73
2023-07-04T13:12:03.547Z,27.55
2023-07-04T13:15:12.832Z,27.41
2023-07-04T13:18:15.876Z,27.29
2023-07-04T13:21:27.454Z,27.18
2023-07-04T13:27:41.549Z,26.98
2023-07-04T13:32:58.853Z,26.88
2023-07-04T13:34:10.440Z,26.78
2023-07-04T13:37:13.525Z,26.72
2023-07-04T13:40:16.823Z,26.69
2023-07-04T13:46:25.590Z,26.64
2023-07-04T13:49:28.584Z,26.64
2023-07-04T13:52:33.702Z,26.72
2023-07-04T13:55:38.389Z,26.88
2023-07-04T13:58:41.694Z,27.07
2023-07-04T14:07:56.391Z,27.28
2023-07-04T14:11:08.848Z,27.32
2023-07-04T14:16:35.746Z,27.38
2023-07-04T14:18:31.874Z,27.40
2023-07-04T14:21:00.826Z,27.47
2023-07-04T14:24:07.163Z,27.59
2023-07-04T14:27:10.562Z,27.67
2023-07-04T14:30:14.116Z,27.68
2023-07-04T14:33:17.239Z,27.64
2023-07-04T14:36:20.392Z,27.66
2023-07-04T14:39:26.184Z,27.65
2023-07-04T14:42:31.746Z,27.58
2023-07-04T14:45:35.423Z,27.49
2023-07-04T14:48:39.308Z,27.42
2023-07-04T14:51:45.700Z,27.39
2023-07-04T14:54:48.882Z,27.43
2023-07-04T14:57:51.835Z,27.47
2023-07-04T15:01:01.407Z,27.49
2023-07-04T15:04:05.459Z,27.44
2023-07-04T15:07:08.487Z,27.36
2023-07-04T15:10:11.543Z,27.31
2023-07-04T15:13:14.698Z,27.30
2023-07-04T15:16:18.817Z,27.27
2023-07-04T15:19:25.996Z,27.20
2023-07-04T15:22:29.046Z,27.14
2023-07-04T15:25:32.100Z,27.09
2023-07-04T15:28:38.649Z,27.06
2023-07-04T15:31:41.739Z,27.01
2023-07-04T15:34:44.927Z,26.93
2023-07-04T15:37:48.031Z,26.85
2023-07-04T15:40:53.867Z,26.77
2023-07-04T15:43:57.000Z,26.69
2023-07-04T15:47:00.453Z,26.63
2023-07-04T15:50:03.656Z,26.57
2023-07-04T15:53:06.656Z,26.53
2023-07-04T15:56:12.949Z,26.51
2023-07-04T15:59:16.600Z,26.48
2023-07-04T16:02:19.654Z,26.43
2023-07-04T16:05:22.950Z,26.38
2023-07-04T16:08:27.540Z,26.32
2023-07-04T16:11:30.582Z,26.25
2023-07-04T16:14:33.524Z,26.17
2023-07-04T16:17:37.772Z,26.10
2023-07-04T16:20:45.639Z,26.04
2023-07-04T16:23:48.685Z,25.97
2023-07-04T16:26:51.925Z,25.93
2023-07-04T16:29:55.063Z,25.86
2023-07-04T16:32:58.072Z,25.79
2023-07-04T16:36:02.541Z,25.71
2023-07-04T16:39:05.512Z,25.65
2023-07-04T16:42:08.498Z,25.59
2023-07-04T16:45:11.526Z,25.53
2023-07-04T16:48:14.867Z,25.49
2023-07-04T16:51:17.805Z,25.45
2023-07-04T16:54:20.755Z,25.42
2023-07-04T16:57:23.744Z,25.38
2023-07-04T17:00:26.829Z,25.35
2023-07-04T17:03:31.505Z,25.31
2023-07-04T17:06:34.535Z,25.27
2023-07-04T17:09:37.516Z,25.25
2023-07-04T17:12:40.448Z,25.22
2023-07-04T17:15:43.500Z,25.20
2023-07-04T17:18:46.532Z,25.18
2023-07-04T17:21:49.891Z,25.16
2023-07-04T17:25:06.944Z,25.16
2023-07-04T17:28:16.403Z,25.12
2023-07-04T17:31:20.050Z,25.09
2023-07-04T17:34:24.495Z,25.07
2023-07-04T17:37:28.391Z,25.04
2023-07-04T17:40:32.432Z,25.01
2023-07-04T17:43:36.748Z,24.98
2023-07-04T17:46:40.023Z,24.94
2023-07-04T17:49:43.066Z,24.90
2023-07-04T17:52:47.242Z,24.88
2023-07-04T17:55:50.553Z,24.84
2023-07-04T17:58:54.946Z,24.80
2023-07-04T18:01:57.939Z,24.76
2023-07-04T18:05:00.921Z,24.72
2023-07-04T18:08:06.572Z,24.68
2023-07-04T18:11:22.752Z,24.64
2023-07-04T18:14:27.273Z,24.60
2023-07-04T18:17:31.291Z,24.56
2023-07-04T18:20:34.437Z,24.52
2023-07-04T18:23:37.710Z,24.47
2023-07-04T18:26:40.746Z,24.42
2023-07-04T18:29:43.708Z,24.39
2023-07-04T18:32:46.711Z,24.34
2023-07-04T18:35:50.381Z,24.29
2023-07-04T18:38:53.670Z,24.24
2023-07-04T18:41:56.703Z,24.18
2023-07-04T18:44:59.595Z,24.13
2023-07-04T18:48:02.696Z,24.06
2023-07-04T18:51:20.534Z,24.01
2023-07-04T18:57:29.306Z,23.89
2023-07-04T19:00:32.288Z,23.83
2023-07-04T19:03:35.754Z,23.78
2023-07-04T19:06:41.067Z,23.72
2023-07-04T19:09:44.242Z,23.67
2023-07-04T19:12:47.276Z,23.61
2023-07-04T19:15:59.749Z,23.56
2023-07-04T19:19:02.733Z,23.52
2023-07-04T19:22:08.444Z,23.46
2023-07-04T19:25:11.539Z,23.40
2023-07-04T19:28:17.125Z,23.35
2023-07-04T19:31:20.384Z,23.29
2023-07-04T19:34:24.956Z,23.22
2023-07-04T19:37:27.949Z,23.14
2023-07-04T19:40:30.872Z,23.07
2023-07-04T19:43:33.892Z,23.00
2023-07-04T19:46:37.086Z,22.94
2023-07-04T19:49:40.635Z,22.89
2023-07-04T19:52:43.727Z,22.84
2023-07-04T19:55:46.607Z,22.78
2023-07-04T19:58:51.194Z,22.73
2023-07-04T20:01:54.221Z,22.68
2023-07-04T20:04:57.324Z,22.63
2023-07-04T20:08:01.357Z,22.58
2023-07-04T20:11:04.691Z,22.54
2023-07-04T20:14:08.593Z,22.49
2023-07-04T20:17:11.557Z,22.45
2023-07-04T20:20:14.622Z,22.39
2023-07-04T20:23:17.789Z,22.34
2023-07-04T20:26:20.970Z,22.29
2023-07-04T20:29:24.102Z,22.25
2023-07-04T20:32:27.122Z,22.21
2023-07-04T20:35:30.873Z,22.18
2023-07-04T20:38:36.225Z,22.15
2023-07-04T20:41:39.142Z,22.11
2023-07-04T20:44:42.171Z,22.06
2023-07-04T20:47:45.279Z,22.02
2023-07-04T20:50:50.114Z,21.99
2023-07-04T20:53:53.385Z,21.96
2023-07-04T20:56:56.369Z,21.93
2023-07-04T20:59:59.368Z,21.90
2023-07-04T21:03:02.338Z,21.87
2023-07-04T21:06:06.601Z,21.84
2023-07-04T21:09:20.077Z,21.80
2023-07-04T21:12:23.264Z,21.77
2023-07-04T21:15:28.802Z,21.74
2023-07-04T21:18:33.662Z,21.72
2023-07-04T21:21:37.164Z,21.69
2023-07-04T21:24:40.076Z,21.65
2023-07-04T21:27:43.809Z,21.62
2023-07-04T21:30:49.274Z,21.59
2023-07-04T21:33:55.559Z,21.55
2023-07-04T21:36:58.535Z,21.51
2023-07-04T21:40:01.678Z,21.49
2023-07-04T21:43:06.241Z,21.47
2023-07-04T21:46:10.832Z,21.44
2023-07-04T21:49:13.774Z,21.43
2023-07-04T21:52:17.369Z,21.41
2023-07-04T21:55:20.373Z,21.39
2023-07-04T21:58:24.261Z,21.38
2023-07-04T22:01:27.338Z,21.36
2023-07-04T22:04:30.798Z,21.34
2023-07-04T22:07:33.839Z,21.32
2023-07-04T22:10:36.838Z,21.31
2023-07-04T22:13:43.446Z,21.29
2023-07-04T22:16:46.482Z,21.29
2023-07-04T22:19:49.609Z,21.27
2023-07-04T22:22:52.689Z,21.25
2023-07-04T22:25:56.446Z,21.25
2023-07-04T22:28:59.701Z,21.23
2023-07-04T22:32:03.120Z,21.21
2023-07-04T22:35:07.543Z,21.20
2023-07-04T22:38:10.531Z,21.17
2023-07-04T22:41:13.478Z,21.14
2023-07-04T22:44:17.271Z,21.12
2023-07-04T22:47:20.246Z,21.10
2023-07-04T22:50:23.287Z,21.08
2023-07-04T22:53:26.696Z,21.07
2023-07-04T22:56:29.686Z,21.07
2023-07-04T22:59:32.587Z,21.05
2023-07-04T23:02:35.836Z,21.05
2023-07-04T23:05:42.155Z,21.04
2023-07-04T23:08:45.298Z,21.03
2023-07-04T23:11:48.227Z,21.02
2023-07-04T23:14:51.184Z,21.02
2023-07-04T23:17:55.503Z,21.01
2023-07-04T23:20:58.562Z,21.01
2023-07-04T23:24:02.084Z,21.00
2023-07-04T23:27:05.683Z,20.99
2023-07-04T23:30:09.083Z,20.99
2023-07-04T23:33:11.984Z,20.98
2023-07-04T23:36:17.938Z,20.97
2023-07-04T23:39:20.866Z,20.95
2023-07-04T23:42:23.964Z,20.92
2023-07-04T23:45:27.073Z,20.90
2023-07-04T23:48:30.230Z,20.86
2023-07-04T23:51:33.143Z,20.84
2023-07-04T23:54:36.090Z,20.81
2023-07-04T23:57:39.012Z,20.79
